Hubbard Woods, Illinois
Current Conditions -  °F | °C
As of 3:33 PM on Monday 24 Nov 2014 (Local Time) from KPWK Reporting Station
Light Snow Light Snow  
Wind Chill: 18°   Ceiling: 1600
Heat Index: 29°   Visibility: 2mi
Dew Point: 25°   Wind: 15mph
Humidity: 85%   Direction: 260°W
Pressure: 29.52"   Gusts: 25mph
Location:  42.1029°N, 87.7571°W
Report Text: KPWK 242133Z 26013G22KT 2SM -SN BR OVC016 M02/M04 A2952 RMK AO2 PK WND 25029/2059 SNB16 P0000 T10171039
Loading
Personal Weather Stations






























Interactive Weather Map New forecast layout! Learn more

10-Day Weather Forecast

Advertisements
Track Severe Weather on mobile